createdAt,value
2017-10-06T00:01:13.562Z,11.20
2017-10-06T00:03:41.636Z,11.30
2017-10-06T00:06:09.742Z,11.30
2017-10-06T00:08:38.596Z,11.30
2017-10-06T00:11:06.669Z,11.30
2017-10-06T00:13:34.775Z,11.30
2017-10-06T00:16:03.630Z,11.30
2017-10-06T00:18:31.796Z,11.30
2017-10-06T00:20:59.878Z,11.40
2017-10-06T00:23:27.991Z,11.40
2017-10-06T00:25:56.078Z,11.40
2017-10-06T00:28:24.951Z,11.30
2017-10-06T00:30:53.077Z,11.30
2017-10-06T00:33:21.171Z,11.30
2017-10-06T00:35:49.319Z,11.30
2017-10-06T00:38:17.422Z,11.30
2017-10-06T00:40:45.502Z,11.30
2017-10-06T00:43:13.742Z,11.30
2017-10-06T00:45:42.604Z,11.40
2017-10-06T00:48:10.734Z,11.30
2017-10-06T00:50:38.831Z,11.40
2017-10-06T00:53:06.920Z,11.30
2017-10-06T00:55:35.031Z,11.40
2017-10-06T00:58:03.107Z,11.40
2017-10-06T01:00:31.208Z,11.40
2017-10-06T01:03:00.080Z,11.30
2017-10-06T01:05:28.188Z,11.30
2017-10-06T01:07:56.293Z,11.30
2017-10-06T01:10:25.166Z,11.30
2017-10-06T01:12:53.913Z,11.30
2017-10-06T01:15:22.784Z,11.30
2017-10-06T01:17:50.885Z,11.30
2017-10-06T01:20:18.966Z,11.30
2017-10-06T01:22:47.038Z,11.10
2017-10-06T01:27:49.627Z,11.10
2017-10-06T01:30:17.715Z,11.00
2017-10-06T01:32:45.777Z,11.00
2017-10-06T01:35:13.879Z,11.00
2017-10-06T01:37:41.963Z,10.90
2017-10-06T01:40:10.823Z,10.90
2017-10-06T01:42:38.933Z,10.80
2017-10-06T01:45:08.528Z,10.90
2017-10-06T01:47:36.734Z,10.80
2017-10-06T01:50:05.638Z,10.90
2017-10-06T01:52:33.746Z,10.80
2017-10-06T01:55:01.832Z,10.90
2017-10-06T01:57:30.685Z,10.90
2017-10-06T01:59:58.801Z,10.80
2017-10-06T02:02:26.929Z,10.90
2017-10-06T02:04:55.010Z,10.80
2017-10-06T02:07:23.092Z,10.90
2017-10-06T02:09:51.934Z,10.90
2017-10-06T02:12:20.781Z,10.80
2017-10-06T02:14:48.854Z,10.90
2017-10-06T02:17:17.763Z,10.90
2017-10-06T02:19:45.848Z,10.80
2017-10-06T02:22:14.007Z,10.90
2017-10-06T02:24:42.130Z,10.90
2017-10-06T02:27:10.994Z,10.80
2017-10-06T02:29:39.106Z,10.80
2017-10-06T02:32:07.234Z,10.80
2017-10-06T02:34:36.084Z,10.80
2017-10-06T02:37:04.166Z,10.80
2017-10-06T02:39:32.350Z,10.80
2017-10-06T02:42:00.442Z,10.80
2017-10-06T02:44:29.426Z,10.90
2017-10-06T02:46:57.526Z,10.90
2017-10-06T02:49:25.637Z,10.90
2017-10-06T02:51:53.759Z,10.90
2017-10-06T02:54:21.882Z,10.90
2017-10-06T02:56:50.005Z,10.90
2017-10-06T02:59:18.094Z,10.90
2017-10-06T03:01:46.511Z,10.90
2017-10-06T03:04:14.617Z,10.80
2017-10-06T03:06:42.718Z,10.90
2017-10-06T03:09:10.835Z,10.90
2017-10-06T03:11:38.906Z,10.80
2017-10-06T03:14:07.022Z,10.80
2017-10-06T03:16:35.865Z,10.80
2017-10-06T03:19:03.943Z,10.80
2017-10-06T03:21:32.050Z,10.80
2017-10-06T03:24:00.122Z,10.80
2017-10-06T03:26:28.230Z,10.80
2017-10-06T03:28:56.419Z,10.80
2017-10-06T03:31:25.245Z,10.70
2017-10-06T03:33:53.444Z,10.70
2017-10-06T03:36:21.538Z,10.70
2017-10-06T03:38:49.660Z,10.70
2017-10-06T03:41:17.800Z,10.70
2017-10-06T03:43:45.902Z,10.80
2017-10-06T03:46:14.009Z,10.70
2017-10-06T03:48:42.101Z,10.70
2017-10-06T03:51:10.186Z,10.80
2017-10-06T03:53:38.274Z,10.80
2017-10-06T03:56:06.446Z,10.70
2017-10-06T03:58:34.518Z,10.70
2017-10-06T04:01:03.407Z,10.80
2017-10-06T04:03:31.496Z,10.80
2017-10-06T04:05:59.647Z,10.80
2017-10-06T04:08:27.759Z,10.70
2017-10-06T04:10:55.825Z,10.70
2017-10-06T04:13:23.899Z,10.70
2017-10-06T04:15:51.993Z,10.70
2017-10-06T04:18:20.079Z,10.70
2017-10-06T04:20:48.182Z,10.70
2017-10-06T04:23:16.279Z,10.70
2017-10-06T04:25:45.138Z,10.70
2017-10-06T04:28:13.242Z,10.60
2017-10-06T04:30:41.367Z,10.70
2017-10-06T04:33:09.473Z,10.70
2017-10-06T04:35:37.546Z,10.70
2017-10-06T04:38:06.426Z,10.80
2017-10-06T04:40:34.656Z,10.70
2017-10-06T04:43:03.481Z,10.70
2017-10-06T04:45:31.596Z,10.70
2017-10-06T04:47:59.696Z,10.70
2017-10-06T04:50:28.610Z,10.70
2017-10-06T04:52:57.495Z,10.70
2017-10-06T04:55:25.585Z,10.60
2017-10-06T04:57:53.811Z,10.70
2017-10-06T05:00:21.890Z,10.80
2017-10-06T05:02:50.005Z,10.80
2017-10-06T05:05:18.076Z,10.80
2017-10-06T05:07:46.156Z,10.80
2017-10-06T05:10:14.381Z,10.80
2017-10-06T05:12:42.457Z,10.90
2017-10-06T05:15:10.577Z,10.90
2017-10-06T05:17:38.716Z,10.90
2017-10-06T05:20:06.806Z,10.90
2017-10-06T05:22:34.934Z,10.90
2017-10-06T05:25:03.764Z,10.90
2017-10-06T05:27:31.872Z,10.80
2017-10-06T05:29:59.982Z,10.90
2017-10-06T05:32:28.218Z,10.90
2017-10-06T05:34:56.317Z,10.90
2017-10-06T05:37:24.407Z,10.90
2017-10-06T05:39:52.522Z,10.80
2017-10-06T05:42:22.165Z,10.80
2017-10-06T05:44:50.260Z,10.70
2017-10-06T05:47:19.118Z,10.80
2017-10-06T05:49:47.249Z,10.70
2017-10-06T05:52:16.103Z,10.80
2017-10-06T05:54:44.340Z,10.70
2017-10-06T05:57:12.406Z,10.80
2017-10-06T05:59:41.247Z,10.70
2017-10-06T06:02:09.360Z,10.70
2017-10-06T06:04:39.066Z,10.70
2017-10-06T06:07:07.219Z,10.60
2017-10-06T06:09:35.309Z,10.70
2017-10-06T06:12:03.412Z,10.70
2017-10-06T06:14:31.500Z,10.70
2017-10-06T06:16:59.910Z,10.70
2017-10-06T06:19:27.995Z,10.70
2017-10-06T06:21:56.086Z,10.70
2017-10-06T06:24:24.160Z,10.60
2017-10-06T06:26:52.254Z,10.70
2017-10-06T06:29:20.326Z,10.90
2017-10-06T06:31:48.406Z,10.90
2017-10-06T06:34:16.504Z,10.90
2017-10-06T06:36:44.584Z,11.00
2017-10-06T06:39:12.708Z,11.00
2017-10-06T06:41:41.637Z,11.20
2017-10-06T06:44:10.967Z,11.20
2017-10-06T06:46:40.323Z,11.30
2017-10-06T06:49:08.433Z,11.20
2017-10-06T06:51:37.274Z,11.50
2017-10-06T06:54:05.349Z,11.50
2017-10-06T06:56:33.454Z,11.60
2017-10-06T06:59:01.522Z,11.70
2017-10-06T07:01:29.629Z,11.70
2017-10-06T07:03:57.757Z,11.60
2017-10-06T07:06:25.864Z,11.60
2017-10-06T07:08:53.937Z,11.60
2017-10-06T07:11:22.035Z,11.60
2017-10-06T07:13:50.246Z,11.60
2017-10-06T07:16:18.303Z,11.60
2017-10-06T07:18:46.413Z,11.70
2017-10-06T07:21:14.475Z,11.90
2017-10-06T07:23:42.552Z,12.10
2017-10-06T07:26:10.658Z,12.20
2017-10-06T07:28:38.772Z,12.20
2017-10-06T07:31:06.883Z,12.30
2017-10-06T07:33:34.966Z,12.20
2017-10-06T07:36:03.040Z,12.10
2017-10-06T07:38:31.922Z,11.90
2017-10-06T07:41:00.769Z,11.80
2017-10-06T07:43:28.925Z,11.80
2017-10-06T07:45:57.774Z,11.60
2017-10-06T07:48:26.674Z,11.50
2017-10-06T07:50:55.374Z,11.50
2017-10-06T07:53:23.494Z,11.50
2017-10-06T07:55:51.616Z,11.50
2017-10-06T07:58:20.459Z,11.40
2017-10-06T08:00:48.665Z,11.40
2017-10-06T08:03:17.116Z,11.50
2017-10-06T08:05:45.222Z,11.60
2017-10-06T08:08:13.350Z,11.60
2017-10-06T08:10:41.414Z,11.70
2017-10-06T08:13:09.545Z,11.90
2017-10-06T08:15:37.641Z,12.10
2017-10-06T08:18:05.886Z,12.10
2017-10-06T08:20:34.005Z,12.30
2017-10-06T08:23:02.121Z,12.40
2017-10-06T08:25:30.316Z,12.70
2017-10-06T08:27:59.186Z,13.20
2017-10-06T08:30:27.528Z,13.10
2017-10-06T08:32:55.613Z,13.40
2017-10-06T08:35:23.724Z,13.70
2017-10-06T08:37:51.847Z,13.90
2017-10-06T08:40:19.965Z,14.10
2017-10-06T08:42:48.075Z,14.30
2017-10-06T08:45:16.133Z,14.00
2017-10-06T08:47:44.221Z,14.00
2017-10-06T08:50:12.494Z,13.90
2017-10-06T08:52:40.586Z,13.80
2017-10-06T08:55:09.479Z,13.60
2017-10-06T08:57:38.379Z,13.70
2017-10-06T09:00:07.206Z,13.70
2017-10-06T09:02:35.412Z,13.70
2017-10-06T09:05:03.502Z,13.80
2017-10-06T09:07:31.586Z,13.60
2017-10-06T09:09:59.678Z,13.50
2017-10-06T09:12:28.549Z,14.00
2017-10-06T09:14:57.374Z,13.90
2017-10-06T09:17:25.441Z,14.30
2017-10-06T09:19:53.549Z,14.60
2017-10-06T09:22:21.843Z,14.70
2017-10-06T09:24:49.959Z,14.70
2017-10-06T09:27:18.863Z,14.60
2017-10-06T09:29:47.018Z,14.50
2017-10-06T09:32:15.109Z,14.70
2017-10-06T09:34:43.989Z,14.30
2017-10-06T09:37:12.119Z,14.30
2017-10-06T09:39:41.740Z,14.20
2017-10-06T09:42:09.886Z,14.20
2017-10-06T09:44:38.063Z,14.70
2017-10-06T09:47:06.163Z,15.40
2017-10-06T09:49:34.270Z,16.70
2017-10-06T09:52:02.368Z,17.20
2017-10-06T09:54:30.478Z,16.30
2017-10-06T09:56:58.947Z,15.80
2017-10-06T09:59:27.107Z,15.60
2017-10-06T10:01:55.195Z,15.60
2017-10-06T10:04:23.339Z,15.80
2017-10-06T10:06:51.427Z,15.90
2017-10-06T10:09:19.526Z,15.80
2017-10-06T10:11:47.735Z,15.60
2017-10-06T10:14:15.858Z,15.20
2017-10-06T10:16:43.947Z,14.90
2017-10-06T10:19:12.049Z,15.00
2017-10-06T10:21:40.188Z,15.20
2017-10-06T10:24:08.290Z,15.20
2017-10-06T10:26:36.371Z,15.50
2017-10-06T10:29:04.478Z,15.80
2017-10-06T10:31:32.558Z,16.10
2017-10-06T10:34:00.673Z,15.70
2017-10-06T10:36:28.915Z,15.80
2017-10-06T10:38:57.891Z,16.70
2017-10-06T10:41:26.770Z,17.00
2017-10-06T10:43:54.838Z,16.90
2017-10-06T10:46:22.984Z,17.30
2017-10-06T10:48:51.091Z,16.90
2017-10-06T10:51:19.225Z,16.30
2017-10-06T10:53:47.335Z,15.90
2017-10-06T10:56:16.266Z,15.80
2017-10-06T10:58:45.114Z,16.00
2017-10-06T11:01:13.325Z,15.90
2017-10-06T11:03:42.182Z,15.90
2017-10-06T11:06:11.794Z,15.40
2017-10-06T11:08:40.022Z,15.40
2017-10-06T11:11:08.098Z,15.20
2017-10-06T11:13:36.296Z,15.30
2017-10-06T11:16:04.374Z,15.10
2017-10-06T11:18:33.262Z,15.00
2017-10-06T11:21:02.141Z,14.90
2017-10-06T11:23:30.237Z,14.90
2017-10-06T11:25:58.340Z,14.70
2017-10-06T11:28:27.236Z,14.60
2017-10-06T11:30:55.352Z,14.50
2017-10-06T11:33:24.229Z,14.40
2017-10-06T11:35:52.327Z,14.40
2017-10-06T11:38:20.405Z,14.20
2017-10-06T11:40:48.519Z,14.20
2017-10-06T11:43:16.626Z,14.30
2017-10-06T11:45:45.517Z,14.00
2017-10-06T11:48:15.137Z,14.20
2017-10-06T11:50:43.332Z,14.20
2017-10-06T11:53:11.598Z,14.40
2017-10-06T11:55:39.756Z,14.70
2017-10-06T11:58:07.909Z,15.10
2017-10-06T12:00:35.997Z,15.50
2017-10-06T12:03:04.165Z,15.70
2017-10-06T12:05:32.321Z,15.70
2017-10-06T12:08:00.427Z,15.60
2017-10-06T12:10:28.565Z,15.60
2017-10-06T12:12:56.767Z,15.30
2017-10-06T12:15:24.843Z,14.90
2017-10-06T12:17:53.693Z,14.80
2017-10-06T12:20:21.764Z,14.80
2017-10-06T12:22:49.845Z,14.80
2017-10-06T12:25:17.946Z,14.80
2017-10-06T12:27:47.458Z,14.70
2017-10-06T12:30:15.579Z,14.60
2017-10-06T12:32:44.414Z,14.70
2017-10-06T12:35:12.543Z,14.70
2017-10-06T12:37:41.438Z,15.10
2017-10-06T12:40:09.522Z,15.10
2017-10-06T12:42:38.491Z,15.80
2017-10-06T12:45:06.601Z,15.80
2017-10-06T12:47:34.683Z,15.70
2017-10-06T12:50:02.785Z,16.10
2017-10-06T12:52:30.890Z,16.60
2017-10-06T12:54:58.966Z,16.70
2017-10-06T12:57:27.890Z,16.10
2017-10-06T12:59:56.821Z,15.70
2017-10-06T13:02:25.675Z,15.40
2017-10-06T13:04:53.785Z,15.30
2017-10-06T13:07:21.899Z,15.50
2017-10-06T13:09:49.988Z,15.70
2017-10-06T13:12:18.843Z,16.30
2017-10-06T13:14:46.952Z,16.30
2017-10-06T13:17:15.629Z,16.30
2017-10-06T13:19:43.717Z,16.30
2017-10-06T13:24:46.370Z,16.60
2017-10-06T13:27:14.474Z,16.80
2017-10-06T13:29:42.570Z,16.90
2017-10-06T13:32:11.438Z,16.70
2017-10-06T13:34:39.614Z,16.70
2017-10-06T13:37:08.494Z,16.90
2017-10-06T13:39:36.577Z,16.80
2017-10-06T13:42:06.171Z,16.70
2017-10-06T13:44:34.248Z,16.70
2017-10-06T13:47:03.857Z,16.80
2017-10-06T13:49:32.773Z,17.10
2017-10-06T13:52:01.763Z,17.10
2017-10-06T13:54:29.861Z,17.00
2017-10-06T13:56:58.701Z,16.50
2017-10-06T13:59:27.981Z,16.40
2017-10-06T14:01:56.070Z,16.40
2017-10-06T14:04:24.212Z,16.40
2017-10-06T14:06:52.290Z,16.30
2017-10-06T14:09:21.141Z,16.30
2017-10-06T14:11:49.246Z,16.20
2017-10-06T14:14:17.390Z,16.00
2017-10-06T14:16:45.505Z,15.70
2017-10-06T14:19:13.600Z,15.60
2017-10-06T14:21:41.699Z,15.30
2017-10-06T14:24:10.256Z,15.10
2017-10-06T14:26:39.112Z,15.00
2017-10-06T14:29:07.360Z,15.00
2017-10-06T14:31:35.453Z,15.00
2017-10-06T14:34:03.552Z,14.90
2017-10-06T14:36:31.640Z,14.90
2017-10-06T14:38:59.746Z,14.90
2017-10-06T14:41:27.837Z,14.80
2017-10-06T14:43:55.934Z,14.90
2017-10-06T14:46:24.051Z,14.90
2017-10-06T14:48:52.254Z,14.70
2017-10-06T14:51:20.379Z,14.60
2017-10-06T14:53:48.475Z,14.50
2017-10-06T14:56:17.408Z,14.50
2017-10-06T14:58:45.505Z,14.40
2017-10-06T15:01:14.388Z,14.50
2017-10-06T15:03:43.284Z,14.40
2017-10-06T15:06:11.363Z,14.40
2017-10-06T15:08:39.496Z,14.30
2017-10-06T15:11:08.398Z,14.40
2017-10-06T15:13:36.514Z,14.30
2017-10-06T15:16:04.610Z,14.40
2017-10-06T15:18:33.498Z,14.30
2017-10-06T15:21:01.634Z,14.20
2017-10-06T15:23:29.747Z,14.20
2017-10-06T15:25:57.851Z,14.20
2017-10-06T15:28:25.965Z,14.20
2017-10-06T15:30:54.058Z,14.10
2017-10-06T15:33:22.928Z,14.10
2017-10-06T15:35:51.059Z,14.00
2017-10-06T15:38:19.455Z,14.10
2017-10-06T15:40:47.575Z,14.00
2017-10-06T15:43:16.438Z,14.00
2017-10-06T15:45:44.537Z,14.00
2017-10-06T15:48:13.390Z,14.00
2017-10-06T15:50:41.472Z,14.00
2017-10-06T15:53:09.568Z,14.00
2017-10-06T15:55:37.634Z,14.00
2017-10-06T15:58:05.726Z,13.90
2017-10-06T16:00:33.825Z,13.90
2017-10-06T16:03:01.941Z,13.90
2017-10-06T16:05:30.062Z,13.80
2017-10-06T16:07:59.402Z,13.80
2017-10-06T16:10:27.497Z,13.80
2017-10-06T16:12:55.571Z,13.80
2017-10-06T16:15:23.747Z,13.70
2017-10-06T16:17:51.835Z,13.70
2017-10-06T16:20:19.889Z,13.70
2017-10-06T16:22:47.995Z,13.70
2017-10-06T16:25:16.075Z,13.70
2017-10-06T16:27:44.950Z,13.60
2017-10-06T16:30:13.628Z,13.60
2017-10-06T16:32:41.729Z,13.60
2017-10-06T16:35:09.821Z,13.50
2017-10-06T16:37:38.705Z,13.50
2017-10-06T16:40:06.799Z,13.50
2017-10-06T16:42:34.917Z,13.60
2017-10-06T16:45:03.771Z,13.50
2017-10-06T16:47:31.894Z,13.40
2017-10-06T16:50:00.024Z,13.40
2017-10-06T16:52:28.097Z,13.40
2017-10-06T16:54:56.822Z,13.30
2017-10-06T16:57:24.932Z,13.30
2017-10-06T16:59:53.167Z,13.30
2017-10-06T17:02:21.250Z,13.30
2017-10-06T17:04:49.397Z,13.30
2017-10-06T17:07:17.487Z,13.30
2017-10-06T17:09:46.366Z,13.20
2017-10-06T17:12:14.469Z,13.20
2017-10-06T17:14:42.554Z,13.20
2017-10-06T17:17:10.681Z,13.20
2017-10-06T17:19:38.763Z,13.20
2017-10-06T17:22:06.871Z,13.20
2017-10-06T17:24:34.969Z,13.10
2017-10-06T17:27:03.046Z,13.10
2017-10-06T17:29:31.180Z,13.00
2017-10-06T17:31:59.260Z,13.10
2017-10-06T17:34:27.380Z,13.10
2017-10-06T17:36:55.461Z,13.00
2017-10-06T17:39:23.575Z,13.00
2017-10-06T17:41:51.668Z,12.90
2017-10-06T17:44:20.500Z,12.80
2017-10-06T17:46:48.610Z,12.80
2017-10-06T17:49:16.729Z,12.70
2017-10-06T17:51:44.856Z,12.70
2017-10-06T17:54:12.947Z,12.60
2017-10-06T17:56:41.111Z,12.50
2017-10-06T18:01:30.419Z,12.30
2017-10-06T18:03:58.545Z,12.20
2017-10-06T18:06:26.615Z,12.20
2017-10-06T18:08:55.494Z,12.00
2017-10-06T18:11:23.861Z,11.90
2017-10-06T18:13:51.957Z,12.00
2017-10-06T18:16:20.096Z,11.80
2017-10-06T18:18:48.171Z,11.80
2017-10-06T18:21:17.272Z,11.70
2017-10-06T18:23:46.117Z,11.60
2017-10-06T18:26:14.225Z,11.60
2017-10-06T18:28:42.331Z,11.70
2017-10-06T18:31:10.463Z,11.80
2017-10-06T18:33:39.425Z,11.80
2017-10-06T18:36:08.258Z,11.70
2017-10-06T18:38:36.529Z,11.70
2017-10-06T18:41:05.351Z,11.70
2017-10-06T18:43:33.439Z,11.70
2017-10-06T18:46:02.315Z,11.80
2017-10-06T18:48:31.166Z,11.80
2017-10-06T18:50:59.355Z,11.70
2017-10-06T18:53:27.464Z,11.80
2017-10-06T18:55:55.761Z,11.80
2017-10-06T18:58:23.858Z,11.80
2017-10-06T19:00:52.761Z,11.80
2017-10-06T19:03:20.928Z,11.80
2017-10-06T19:05:49.091Z,11.80
2017-10-06T19:08:17.208Z,11.80
2017-10-06T19:10:45.295Z,11.80
2017-10-06T19:13:13.382Z,11.80
2017-10-06T19:15:41.486Z,11.90
2017-10-06T19:18:09.597Z,11.90
2017-10-06T19:20:37.664Z,12.00
2017-10-06T19:23:05.795Z,12.00
2017-10-06T19:25:33.917Z,12.00
2017-10-06T19:28:01.978Z,12.00
2017-10-06T19:30:30.886Z,12.10
2017-10-06T19:32:59.022Z,12.00
2017-10-06T19:35:27.150Z,12.10
2017-10-06T19:37:55.228Z,12.10
2017-10-06T19:40:23.313Z,12.10
2017-10-06T19:42:51.393Z,12.10
2017-10-06T19:45:19.528Z,12.10
2017-10-06T19:47:47.643Z,12.00
2017-10-06T19:50:15.723Z,12.00
2017-10-06T19:52:44.624Z,12.00
2017-10-06T19:55:12.739Z,12.00
2017-10-06T19:57:40.878Z,12.00
2017-10-06T20:00:08.977Z,12.10
2017-10-06T20:02:37.057Z,12.00
2017-10-06T20:05:05.194Z,12.00
2017-10-06T20:07:33.373Z,12.10
2017-10-06T20:10:01.956Z,12.00
2017-10-06T20:12:30.086Z,12.10
2017-10-06T20:14:58.158Z,12.10
2017-10-06T20:17:26.271Z,12.20
2017-10-06T20:19:55.123Z,12.20
2017-10-06T20:22:23.288Z,12.10
2017-10-06T20:24:51.383Z,12.10
2017-10-06T20:27:19.464Z,12.20
2017-10-06T20:29:47.649Z,12.20
2017-10-06T20:32:15.764Z,12.20
2017-10-06T20:34:45.833Z,12.20
2017-10-06T20:37:14.747Z,12.30
2017-10-06T20:39:43.346Z,12.30
2017-10-06T20:42:11.450Z,12.30
2017-10-06T20:44:39.546Z,12.30
2017-10-06T20:47:07.692Z,12.20
2017-10-06T20:49:35.758Z,12.30
2017-10-06T20:52:03.955Z,12.30
2017-10-06T20:54:33.898Z,12.30
2017-10-06T20:57:01.982Z,12.20
2017-10-06T20:59:30.880Z,12.20
2017-10-06T21:01:58.956Z,12.20
2017-10-06T21:04:27.068Z,12.20
2017-10-06T21:06:55.922Z,12.20
2017-10-06T21:09:24.031Z,12.10
2017-10-06T21:11:52.125Z,12.20
2017-10-06T21:14:20.316Z,12.10
2017-10-06T21:16:48.449Z,12.10
2017-10-06T21:19:17.302Z,12.00
2017-10-06T21:21:45.463Z,12.00
2017-10-06T21:24:14.396Z,12.10
2017-10-06T21:26:43.291Z,12.10
2017-10-06T21:29:11.419Z,12.10
2017-10-06T21:31:39.535Z,12.10
2017-10-06T21:34:07.671Z,12.00
2017-10-06T21:36:35.976Z,12.10
2017-10-06T21:39:04.127Z,12.00
2017-10-06T21:41:32.267Z,12.10
2017-10-06T21:44:00.374Z,12.10
2017-10-06T21:46:28.518Z,12.10
2017-10-06T21:48:57.410Z,12.20
2017-10-06T21:51:25.564Z,12.20
2017-10-06T21:53:53.710Z,12.10
2017-10-06T21:56:21.815Z,12.20
2017-10-06T21:58:50.067Z,12.10
2017-10-06T22:01:19.043Z,12.20
2017-10-06T22:03:47.140Z,12.20
2017-10-06T22:06:15.242Z,12.20
2017-10-06T22:08:43.824Z,12.30
2017-10-06T22:11:12.089Z,12.20
2017-10-06T22:13:40.179Z,12.20
2017-10-06T22:16:08.306Z,12.20
2017-10-06T22:18:36.393Z,12.20
2017-10-06T22:21:05.261Z,12.20
2017-10-06T22:23:33.373Z,12.10
2017-10-06T22:26:01.515Z,12.20
2017-10-06T22:28:30.092Z,12.30
2017-10-06T22:30:58.176Z,12.20
2017-10-06T22:33:27.079Z,12.30
2017-10-06T22:35:56.703Z,12.30
2017-10-06T22:38:24.855Z,12.30
2017-10-06T22:40:53.071Z,12.30
2017-10-06T22:43:21.163Z,12.30
2017-10-06T22:45:49.322Z,12.40
2017-10-06T22:48:18.173Z,12.40
2017-10-06T22:50:46.291Z,12.40
2017-10-06T22:53:14.381Z,12.40
2017-10-06T22:55:42.497Z,12.40
2017-10-06T22:58:10.629Z,12.40
2017-10-06T23:00:38.747Z,12.40
2017-10-06T23:03:07.133Z,12.40
2017-10-06T23:05:35.251Z,12.50
2017-10-06T23:08:03.409Z,12.50
2017-10-06T23:10:31.555Z,12.50
2017-10-06T23:12:59.703Z,12.50
2017-10-06T23:15:29.358Z,12.50
2017-10-06T23:17:57.477Z,12.50
2017-10-06T23:20:25.587Z,12.60
2017-10-06T23:22:53.678Z,12.60
2017-10-06T23:25:21.775Z,12.60
2017-10-06T23:27:50.028Z,12.60
2017-10-06T23:30:18.220Z,12.70
2017-10-06T23:32:47.072Z,12.70
2017-10-06T23:35:15.964Z,12.70
2017-10-06T23:37:44.055Z,12.70
2017-10-06T23:40:13.084Z,12.80
2017-10-06T23:42:41.178Z,12.70
2017-10-06T23:45:09.269Z,12.80
2017-10-06T23:47:37.379Z,12.80
2017-10-06T23:50:06.229Z,12.80
2017-10-06T23:52:34.548Z,12.80
2017-10-06T23:55:03.414Z,12.90
2017-10-06T23:57:31.516Z,12.80
2017-10-06T23:59:59.589Z,12.90
